Time;durP1;ratioP1;P1;durP2;ratioP2;P2;SDS_P1;SDS_P2;PMS_P1;PMS_P2;Temp;Humidity;BMP_temperature;BMP_pressure;BME280_temperature;BME280_humidity;BME280_pressure;Samples;Min_cycle;Max_cycle;Signal;HPM_P1;HPM_P2
2022/08/31 00:03:55;;;;;;;3.42;1.20;;;21.30;92.40;;;;;;5057644;28;20036;-84
2022/08/31 00:06:21;;;;;;;4.45;1.25;;;21.30;92.30;;;;;;5039572;28;20025;-83
2022/08/31 00:08:47;;;;;;;2.35;0.93;;;21.30;92.30;;;;;;5057888;28;20559;-84
2022/08/31 00:11:13;;;;;;;3.67;1.00;;;21.30;92.10;;;;;;5057706;28;20033;-84
2022/08/31 00:13:43;;;;;;;2.13;0.90;;;21.30;92.20;;;;;;5055813;28;20071;-84
2022/08/31 00:16:10;;;;;;;2.42;0.90;;;21.30;92.10;;;;;;5048039;28;20025;-83
2022/08/31 00:18:36;;;;;;;2.35;0.90;;;21.30;92.40;;;;;;5057450;28;20021;-84
2022/08/31 00:21:02;;;;;;;2.13;0.90;;;21.30;92.50;;;;;;5045008;28;20028;-83
2022/08/31 00:23:28;;;;;;;2.22;0.80;;;21.30;92.20;;;;;;5049143;28;20037;-83
2022/08/31 00:25:53;;;;;;;2.70;0.80;;;21.30;92.20;;;;;;5043826;28;20070;-84
2022/08/31 00:28:19;;;;;;;2.95;1.27;;;21.40;92.50;;;;;;5057668;28;20047;-83
2022/08/31 00:30:46;;;;;;;5.95;1.10;;;21.20;93.60;;;;;;5055104;28;20021;-84
2022/08/31 00:33:12;;;;;;;3.45;1.30;;;21.20;94.30;;;;;;5046734;28;20638;-85
2022/08/31 00:35:40;;;;;;;3.42;1.10;;;21.00;94.90;;;;;;5055246;28;20112;-84
2022/08/31 00:38:06;;;;;;;2.75;1.27;;;20.90;95.60;;;;;;5056678;28;20023;-85
2022/08/31 00:40:33;;;;;;;3.17;1.10;;;20.80;95.80;;;;;;5041249;28;20040;-84
2022/08/31 00:42:59;;;;;;;3.63;1.40;;;20.70;97.10;;;;;;5056370;28;20025;-84
2022/08/31 00:45:26;;;;;;;2.90;1.20;;;20.60;96.40;;;;;;5056475;28;20145;-84
2022/08/31 00:47:52;;;;;;;2.40;1.25;;;20.60;96.60;;;;;;5041877;28;20504;-84
2022/08/31 00:50:20;;;;;;;3.03;1.10;;;20.60;96.00;;;;;;5054129;28;20194;-84
2022/08/31 00:52:51;;;;;;;3.20;1.02;;;20.50;96.30;;;;;;5055820;28;20087;-84
2022/08/31 00:55:21;;;;;;;2.97;1.17;;;20.30;97.50;;;;;;5056226;28;20112;-84
2022/08/31 00:57:49;;;;;;;3.13;1.15;;;20.20;98.10;;;;;;5056221;28;20108;-84
2022/08/31 01:00:22;;;;;;;4.22;1.10;;;20.10;98.40;;;;;;5045171;28;20021;-84
2022/08/31 01:02:48;;;;;;;2.20;1.30;;;20.00;99.50;;;;;;5058989;28;20029;-84
2022/08/31 01:05:15;;;;;;;3.40;1.50;;;19.80;99.90;;;;;;5051281;28;20032;-84
2022/08/31 01:07:43;;;;;;;3.78;1.48;;;19.60;99.90;;;;;;5045924;28;20100;-83
2022/08/31 01:10:09;;;;;;;4.03;1.35;;;19.40;99.90;;;;;;5053581;28;20021;-84
2022/08/31 01:12:35;;;;;;;3.38;1.65;;;19.30;99.90;;;;;;5063060;28;20052;-84
2022/08/31 01:15:05;;;;;;;5.55;1.83;;;19.20;99.90;;;;;;5066234;28;20104;-85
2022/08/31 01:17:33;;;;;;;3.13;1.10;;;19.10;99.90;;;;;;5084011;28;20028;-85
2022/08/31 01:20:09;;;;;;;3.15;1.63;;;18.90;99.90;;;;;;5050368;28;20025;-85
2022/08/31 01:22:41;;;;;;;3.70;1.52;;;18.80;99.90;;;;;;5083083;28;20035;-85
2022/08/31 01:25:07;;;;;;;4.50;1.40;;;18.80;99.90;;;;;;5044802;28;20021;-85
2022/08/31 01:27:35;;;;;;;4.47;2.10;;;18.50;99.90;;;;;;5059782;28;20096;-84
2022/08/31 01:30:04;;;;;;;4.20;1.92;;;18.50;99.90;;;;;;5049645;28;20028;-84
2022/08/31 01:32:31;;;;;;;3.88;1.83;;;18.40;99.90;;;;;;5083265;28;20165;-84
2022/08/31 01:34:56;;;;;;;4.30;1.88;;;18.30;99.90;;;;;;5053481;28;20044;-84
2022/08/31 01:37:22;;;;;;;4.18;1.70;;;18.20;99.90;;;;;;5060645;28;20021;-86
2022/08/31 01:39:49;;;;;;;3.53;1.67;;;18.10;99.90;;;;;;5053356;28;20029;-86
2022/08/31 01:42:18;;;;;;;4.00;2.00;;;18.10;99.90;;;;;;5075952;28;20045;-84
2022/08/31 01:44:43;;;;;;;7.80;1.85;;;17.90;99.90;;;;;;5049473;28;20664;-86
2022/08/31 01:47:09;;;;;;;4.32;2.08;;;18.00;99.90;;;;;;5048864;28;20017;-85
2022/08/31 01:49:35;;;;;;;6.20;2.42;;;18.00;99.90;;;;;;5080510;28;20096;-83
2022/08/31 01:52:01;;;;;;;5.60;2.10;;;18.10;99.90;;;;;;5040425;28;20560;-84
2022/08/31 01:54:26;;;;;;;4.05;1.75;;;18.00;99.90;;;;;;5050826;28;20021;-85
2022/08/31 01:56:53;;;;;;;4.75;1.73;;;17.90;99.90;;;;;;5037497;28;20405;-86
2022/08/31 01:59:21;;;;;;;6.13;2.10;;;17.80;99.90;;;;;;5060918;28;20087;-84
2022/08/31 02:01:50;;;;;;;5.68;2.50;;;17.80;99.90;;;;;;5089627;28;20029;-85
2022/08/31 02:04:18;;;;;;;4.15;1.77;;;18.00;99.90;;;;;;5060744;28;20040;-84
2022/08/31 02:06:46;;;;;;;3.35;1.45;;;17.70;99.90;;;;;;5039130;28;20043;-86
2022/08/31 02:09:13;;;;;;;5.32;1.98;;;17.70;99.90;;;;;;5049446;28;20481;-85
2022/08/31 02:11:39;;;;;;;3.85;1.65;;;17.50;99.90;;;;;;5084870;28;20029;-86
2022/08/31 02:14:06;;;;;;;4.45;1.75;;;17.10;99.90;;;;;;5060053;28;20025;-85
2022/08/31 02:16:32;;;;;;;4.65;1.92;;;17.10;99.90;;;;;;5055480;28;20035;-85
2022/08/31 02:18:57;;;;;;;5.28;2.20;;;17.30;99.90;;;;;;5045700;28;20013;-85
2022/08/31 02:21:24;;;;;;;4.70;2.15;;;17.30;99.90;;;;;;5061355;28;20021;-84
2022/08/31 02:23:49;;;;;;;8.20;2.80;;;17.40;99.90;;;;;;5060858;28;20032;-84
2022/08/31 02:26:15;;;;;;;3.92;2.03;;;17.30;99.90;;;;;;5055943;28;20026;-84
2022/08/31 02:28:40;;;;;;;5.47;2.42;;;17.40;99.90;;;;;;5061073;28;20021;-85
2022/08/31 02:31:06;;;;;;;5.03;2.20;;;17.40;99.90;;;;;;5062446;28;20052;-85
2022/08/31 02:33:32;;;;;;;5.03;2.28;;;17.40;99.90;;;;;;5051832;28;20045;-85
2022/08/31 02:35:57;;;;;;;3.50;1.85;;;17.50;99.90;;;;;;5057083;28;20494;-85
2022/08/31 02:38:24;;;;;;;5.22;2.35;;;17.40;99.90;;;;;;5056610;28;20087;-85
2022/08/31 02:40:50;;;;;;;4.95;2.20;;;17.60;99.90;;;;;;5061796;28;20036;-84
2022/08/31 02:43:16;;;;;;;5.15;2.00;;;17.60;99.90;;;;;;5082506;28;20071;-85
2022/08/31 02:45:42;;;;;;;4.82;2.38;;;17.60;99.90;;;;;;5045875;28;20025;-84
2022/08/31 02:48:09;;;;;;;3.72;1.83;;;17.60;99.90;;;;;;5061419;28;20051;-84
2022/08/31 02:50:40;;;;;;;4.03;2.15;;;17.60;99.90;;;;;;5049563;28;20025;-85
2022/08/31 02:53:06;;;;;;;5.18;2.00;;;17.60;99.90;;;;;;5051238;28;20039;-86
2022/08/31 02:55:31;;;;;;;4.35;2.10;;;17.60;99.90;;;;;;5062787;28;20061;-82
2022/08/31 02:57:57;;;;;;;7.65;2.22;;;17.70;99.90;;;;;;5066363;28;20101;-83
2022/08/31 03:00:23;;;;;;;4.82;2.05;;;17.70;99.90;;;;;;5057920;28;20056;-86
2022/08/31 03:02:49;;;;;;;5.10;2.47;;;17.60;99.90;;;;;;5059585;28;20037;-84
2022/08/31 03:05:16;;;;;;;6.20;2.22;;;17.60;99.90;;;;;;5107432;22;21159;-81
2022/08/31 03:07:41;;;;;;;5.53;2.78;;;17.50;99.90;;;;;;5081368;28;20035;-81
2022/08/31 03:10:10;;;;;;;4.63;2.05;;;17.60;99.90;;;;;;5082055;28;20095;-81
2022/08/31 03:12:36;;;;;;;4.75;2.60;;;17.60;99.90;;;;;;5068452;28;20021;-81
2022/08/31 03:15:04;;;;;;;4.97;2.15;;;17.70;99.90;;;;;;5076357;28;20116;-81
2022/08/31 03:17:29;;;;;;;5.80;2.42;;;17.60;99.90;;;;;;5067810;28;20025;-82
2022/08/31 03:19:59;;;;;;;6.13;2.22;;;17.60;99.90;;;;;;5067832;28;20027;-80
2022/08/31 03:22:26;;;;;;;4.40;2.45;;;17.70;99.90;;;;;;5074188;28;20039;-81
2022/08/31 03:24:51;;;;;;;5.78;2.90;;;17.70;99.90;;;;;;5075064;28;20040;-81
2022/08/31 03:27:17;;;;;;;5.10;2.20;;;17.70;99.90;;;;;;5075466;28;20017;-81
2022/08/31 03:29:43;;;;;;;6.03;2.60;;;17.80;99.90;;;;;;5076886;28;20552;-81
2022/08/31 03:32:08;;;;;;;5.50;2.22;;;17.70;99.90;;;;;;5071310;28;20112;-81
2022/08/31 03:34:34;;;;;;;6.60;2.15;;;17.80;99.90;;;;;;5070133;28;20095;-81
2022/08/31 03:37:00;;;;;;;4.25;2.17;;;17.80;99.90;;;;;;5071890;28;20048;-81
2022/08/31 03:39:25;;;;;;;5.68;2.92;;;17.80;99.90;;;;;;5076294;28;20047;-80
2022/08/31 03:41:51;;;;;;;6.93;2.38;;;17.80;99.90;;;;;;5077420;28;20028;-81
2022/08/31 03:44:22;;;;;;;4.18;2.25;;;17.90;99.90;;;;;;5076529;28;20103;-81
2022/08/31 03:46:49;;;;;;;4.50;2.20;;;17.90;99.90;;;;;;5077038;28;20028;-80
2022/08/31 03:49:17;;;;;;;4.55;2.10;;;17.90;99.90;;;;;;5075425;28;20529;-81
2022/08/31 03:51:43;;;;;;;4.60;2.30;;;17.90;99.90;;;;;;5078778;28;20029;-81
2022/08/31 03:54:09;;;;;;;5.55;2.40;;;17.90;99.90;;;;;;5078442;28;20017;-81
2022/08/31 03:56:34;;;;;;;5.47;2.58;;;17.90;99.90;;;;;;5067879;28;20059;-81
2022/08/31 03:59:00;;;;;;;4.53;2.08;;;17.90;99.90;;;;;;5074025;28;20060;-81
2022/08/31 04:01:25;;;;;;;5.43;2.13;;;18.00;99.90;;;;;;5065993;28;20021;-81
2022/08/31 04:03:51;;;;;;;4.47;2.28;;;18.00;99.90;;;;;;5074138;28;20029;-81
2022/08/31 04:06:17;;;;;;;6.13;2.55;;;18.00;99.90;;;;;;5078864;28;20080;-81
2022/08/31 04:08:42;;;;;;;3.53;2.05;;;17.70;99.90;;;;;;5075246;28;20039;-81
2022/08/31 04:11:11;;;;;;;5.97;2.78;;;17.70;99.90;;;;;;5072350;28;20523;-81
2022/08/31 04:13:38;;;;;;;4.05;2.20;;;17.60;99.90;;;;;;5074332;28;20020;-81
2022/08/31 04:16:07;;;;;;;6.20;2.78;;;17.70;99.90;;;;;;5079502;28;20039;-81
2022/08/31 04:18:34;;;;;;;6.20;2.70;;;17.70;99.90;;;;;;5072824;28;20057;-81
2022/08/31 04:20:59;;;;;;;5.28;2.63;;;17.80;99.90;;;;;;5074207;28;20017;-81
2022/08/31 04:23:28;;;;;;;5.20;2.40;;;17.80;99.90;;;;;;5071857;28;20208;-81
2022/08/31 04:25:53;;;;;;;6.00;2.90;;;17.80;99.90;;;;;;5073606;28;20116;-81
2022/08/31 04:28:19;;;;;;;5.38;2.35;;;17.80;99.90;;;;;;5078463;28;20024;-81
2022/08/31 04:30:47;;;;;;;5.65;3.08;;;17.70;99.90;;;;;;5076000;28;20465;-81
2022/08/31 04:33:13;;;;;;;4.88;2.47;;;17.70;99.90;;;;;;5067683;28;20044;-81
2022/08/31 04:35:40;;;;;;;4.78;2.08;;;17.70;99.90;;;;;;5076044;28;20454;-81
2022/08/31 04:38:06;;;;;;;4.43;2.53;;;17.70;99.90;;;;;;5079111;28;20054;-82
2022/08/31 04:40:32;;;;;;;5.60;2.47;;;17.60;99.90;;;;;;5079827;28;20029;-81
2022/08/31 04:42:58;;;;;;;5.22;2.40;;;17.50;99.90;;;;;;5074476;28;20017;-81
2022/08/31 04:45:24;;;;;;;4.95;2.60;;;17.50;99.90;;;;;;5074484;28;20040;-80
2022/08/31 04:47:50;;;;;;;5.45;2.97;;;17.60;99.90;;;;;;5069320;28;20017;-81
2022/08/31 04:50:15;;;;;;;5.15;2.60;;;17.60;99.90;;;;;;5079522;28;20469;-81
2022/08/31 04:52:43;;;;;;;6.05;3.00;;;17.60;99.90;;;;;;5072603;28;20021;-81
2022/08/31 04:55:10;;;;;;;5.20;2.40;;;17.60;99.90;;;;;;5072203;28;20111;-81
2022/08/31 04:57:37;;;;;;;5.82;2.75;;;17.60;99.90;;;;;;5075103;28;20032;-81
2022/08/31 05:00:04;;;;;;;10.50;3.00;;;17.60;99.90;;;;;;5071144;28;20025;-81
2022/08/31 05:02:32;;;;;;;5.45;3.15;;;17.50;99.90;;;;;;5077934;28;20020;-81
2022/08/31 05:04:59;;;;;;;8.43;3.03;;;17.40;99.90;;;;;;5067442;28;20015;-80
2022/08/31 05:07:25;;;;;;;6.82;3.30;;;17.30;99.90;;;;;;5072297;28;20029;-81
2022/08/31 05:09:51;;;;;;;5.88;3.10;;;17.20;99.90;;;;;;5073389;28;20048;-81
2022/08/31 05:12:17;;;;;;;7.80;3.35;;;17.20;99.90;;;;;;5070703;28;20035;-81
2022/08/31 05:14:43;;;;;;;7.90;3.00;;;17.20;99.90;;;;;;5060880;28;20063;-81
2022/08/31 05:17:09;;;;;;;5.95;3.35;;;17.30;99.90;;;;;;5070061;28;20024;-81
2022/08/31 05:19:35;;;;;;;5.63;2.90;;;17.30;99.90;;;;;;5073410;28;20028;-81
2022/08/31 05:22:01;;;;;;;6.75;3.25;;;17.40;99.90;;;;;;5070458;28;20067;-81
2022/08/31 05:24:27;;;;;;;7.25;3.38;;;17.40;99.90;;;;;;5072178;28;20051;-81
2022/08/31 05:26:54;;;;;;;5.25;3.03;;;17.40;99.90;;;;;;5066614;28;20016;-81
2022/08/31 05:29:24;;;;;;;6.50;3.20;;;17.20;99.90;;;;;;5076526;28;20031;-81
2022/08/31 05:31:51;;;;;;;5.78;3.05;;;17.30;99.90;;;;;;5074181;28;20040;-80
2022/08/31 05:34:17;;;;;;;7.70;3.35;;;17.30;99.90;;;;;;5080702;28;20043;-82
2022/08/31 05:36:45;;;;;;;6.45;3.13;;;17.40;99.90;;;;;;5081438;28;20044;-81
2022/08/31 05:39:11;;;;;;;6.78;2.72;;;17.40;99.90;;;;;;5081448;28;20052;-81
2022/08/31 05:41:40;;;;;;;5.60;2.88;;;17.50;99.90;;;;;;5081094;28;20109;-81
2022/08/31 05:44:06;;;;;;;7.15;2.65;;;17.50;99.90;;;;;;5080776;28;20021;-82
2022/08/31 05:46:32;;;;;;;6.72;3.15;;;17.60;99.90;;;;;;5076421;28;20032;-81
2022/08/31 05:48:58;;;;;;;5.50;2.53;;;17.60;99.90;;;;;;5080733;28;20431;-81
2022/08/31 05:51:24;;;;;;;5.05;2.40;;;17.60;99.90;;;;;;5080161;28;20017;-81
2022/08/31 05:53:50;;;;;;;5.57;2.80;;;17.60;99.90;;;;;;5081808;28;20033;-81
2022/08/31 05:56:24;;;;;;;4.78;2.40;;;17.70;99.90;;;;;;5081738;28;20020;-82
2022/08/31 05:58:50;;;;;;;6.53;2.83;;;17.70;99.90;;;;;;5081269;28;20052;-81
2022/08/31 06:01:23;;;;;;;5.47;2.60;;;17.70;99.90;;;;;;5081314;28;20039;-81
2022/08/31 06:03:49;;;;;;;5.05;2.60;;;17.70;99.90;;;;;;5074043;28;20083;-81
2022/08/31 06:06:15;;;;;;;4.85;2.40;;;17.70;99.90;;;;;;5070609;28;20035;-82
2022/08/31 06:08:42;;;;;;;6.05;2.90;;;17.70;99.90;;;;;;5078482;28;20477;-81
2022/08/31 06:11:13;;;;;;;4.40;2.35;;;17.70;99.90;;;;;;5076968;28;20029;-81
2022/08/31 06:13:39;;;;;;;6.57;2.83;;;17.70;99.90;;;;;;5079797;28;20119;-81
2022/08/31 06:16:05;;;;;;;6.20;3.05;;;17.70;99.90;;;;;;5079263;28;20027;-81
2022/08/31 06:18:31;;;;;;;5.55;2.88;;;17.70;99.90;;;;;;5080979;28;20070;-81
2022/08/31 06:21:07;;;;;;;7.88;3.38;;;17.80;99.90;;;;;;5077704;28;20048;-81
2022/08/31 06:23:36;;;;;;;6.90;3.38;;;17.70;99.90;;;;;;5075318;28;20115;-81
2022/08/31 06:26:06;;;;;;;7.03;3.15;;;17.70;99.90;;;;;;5067103;28;20026;-81
2022/08/31 06:28:33;;;;;;;6.90;2.85;;;17.80;99.90;;;;;;5081405;28;20029;-82
2022/08/31 06:31:04;;;;;;;5.90;3.10;;;17.80;99.90;;;;;;5076173;28;20020;-81
2022/08/31 06:33:31;;;;;;;5.53;2.70;;;17.80;99.90;;;;;;5079408;28;20013;-81
2022/08/31 06:35:56;;;;;;;4.80;2.58;;;17.80;99.90;;;;;;5073802;28;20043;-81
2022/08/31 06:38:22;;;;;;;4.28;2.22;;;17.80;99.90;;;;;;5073479;28;20119;-81
2022/08/31 06:40:48;;;;;;;5.63;2.88;;;17.70;99.90;;;;;;5078763;28;20069;-81
2022/08/31 06:43:13;;;;;;;5.97;2.65;;;17.80;99.90;;;;;;5075340;28;20025;-81
2022/08/31 06:45:39;;;;;;;5.50;2.53;;;17.80;99.90;;;;;;5075884;28;20020;-81
2022/08/31 06:48:04;;;;;;;6.85;2.50;;;17.80;99.90;;;;;;5069100;28;20049;-81
2022/08/31 06:50:31;;;;;;;4.63;2.42;;;17.80;99.90;;;;;;5072230;28;20050;-81
2022/08/31 06:52:56;;;;;;;7.07;2.90;;;17.80;99.90;;;;;;5068606;28;20028;-81
2022/08/31 06:55:23;;;;;;;5.53;2.35;;;17.80;99.90;;;;;;5069210;28;20032;-81
2022/08/31 06:57:49;;;;;;;6.30;2.60;;;17.80;99.90;;;;;;5070383;28;20463;-81
2022/08/31 07:00:14;;;;;;;4.60;2.30;;;17.80;99.90;;;;;;5078083;28;20021;-81
2022/08/31 07:02:40;;;;;;;5.00;2.72;;;17.80;99.90;;;;;;5071821;28;20056;-81
2022/08/31 07:05:06;;;;;;;5.82;2.30;;;17.80;99.90;;;;;;5077281;28;20066;-81
2022/08/31 07:07:31;;;;;;;4.53;2.38;;;17.80;99.90;;;;;;5074100;28;20047;-82
2022/08/31 07:09:57;;;;;;;5.18;2.80;;;17.70;99.90;;;;;;5079539;28;20016;-82
2022/08/31 07:12:23;;;;;;;7.28;2.47;;;17.70;99.90;;;;;;5078467;28;20052;-81
2022/08/31 07:14:48;;;;;;;5.43;2.67;;;17.60;99.90;;;;;;5077760;28;20102;-81
2022/08/31 07:17:14;;;;;;;7.00;2.83;;;17.60;99.90;;;;;;5075575;28;20020;-81
2022/08/31 07:19:40;;;;;;;6.72;2.95;;;17.60;99.90;;;;;;5071086;28;20054;-81
2022/08/31 07:22:08;;;;;;;6.20;2.70;;;17.70;99.90;;;;;;5074889;28;20029;-80
2022/08/31 07:24:34;;;;;;;5.88;3.20;;;17.70;99.90;;;;;;5070479;28;20018;-81
2022/08/31 07:27:08;;;;;;;4.55;2.35;;;17.70;99.90;;;;;;5066385;28;20032;-81
2022/08/31 07:29:39;;;;;;;5.75;2.50;;;17.70;99.90;;;;;;5072080;28;20095;-81
2022/08/31 07:32:14;;;;;;;6.38;2.78;;;17.70;99.90;;;;;;5067693;28;20466;-81
2022/08/31 07:34:42;;;;;;;5.60;2.72;;;17.80;99.90;;;;;;5068876;28;20032;-81
2022/08/31 07:42:43;;;;;;;5.18;2.33;;;18.00;99.90;;;;;;5078334;28;20084;-81
2022/08/31 07:45:20;;;;;;;5.90;2.28;;;18.00;99.90;;;;;;5077745;28;20024;-81
2022/08/31 07:47:47;;;;;;;4.68;2.65;;;18.00;99.90;;;;;;5074692;28;20063;-81
2022/08/31 07:50:16;;;;;;;4.22;1.90;;;18.00;99.90;;;;;;5077360;28;20067;-81
2022/08/31 07:52:46;;;;;;;4.60;2.30;;;18.00;99.90;;;;;;5074347;28;20075;-81
2022/08/31 07:55:12;;;;;;;4.65;2.28;;;18.00;99.90;;;;;;5072350;28;20021;-81
2022/08/31 07:57:42;;;;;;;6.68;2.63;;;17.80;99.90;;;;;;5060001;28;20055;-81
2022/08/31 08:00:12;;;;;;;4.60;1.95;;;17.90;99.90;;;;;;5062422;28;20016;-81
2022/08/31 08:02:38;;;;;;;5.70;2.38;;;17.80;99.90;;;;;;5078720;28;20055;-81
2022/08/31 08:05:09;;;;;;;4.50;1.90;;;17.80;99.90;;;;;;5077634;28;20046;-81
2022/08/31 08:07:37;;;;;;;4.63;2.47;;;17.80;99.90;;;;;;5078867;28;20020;-81
2022/08/31 08:10:13;;;;;;;3.95;2.00;;;17.70;99.90;;;;;;5078329;28;20037;-81
2022/08/31 08:12:41;;;;;;;4.10;2.22;;;17.70;99.90;;;;;;5078727;28;20461;-81
2022/08/31 08:15:07;;;;;;;5.50;2.03;;;17.70;99.90;;;;;;5077413;28;20048;-81
2022/08/31 08:17:32;;;;;;;4.50;2.20;;;17.60;99.90;;;;;;5078961;28;20041;-81
2022/08/31 08:19:58;;;;;;;5.38;2.15;;;17.70;99.90;;;;;;5077880;28;20137;-80
2022/08/31 08:22:23;;;;;;;4.90;2.42;;;17.70;99.90;;;;;;5077123;28;20400;-81
2022/08/31 08:24:50;;;;;;;5.20;2.35;;;17.70;99.90;;;;;;5075335;28;20013;-80
2022/08/31 08:27:16;;;;;;;4.30;2.45;;;17.70;99.90;;;;;;5075027;28;20016;-81
2022/08/31 08:29:41;;;;;;;6.40;2.53;;;17.80;99.90;;;;;;5077461;28;20047;-81
2022/08/31 08:32:08;;;;;;;5.15;2.42;;;17.90;99.90;;;;;;5076547;28;20032;-81
2022/08/31 08:34:42;;;;;;;4.68;2.42;;;17.90;99.90;;;;;;5076508;28;20021;-81
2022/08/31 08:37:09;;;;;;;4.57;2.53;;;18.00;99.90;;;;;;5075402;28;20403;-81
2022/08/31 08:39:36;;;;;;;4.43;2.40;;;17.90;99.90;;;;;;5076518;28;20029;-81
2022/08/31 08:42:03;;;;;;;5.55;2.55;;;17.90;99.90;;;;;;5078654;28;20025;-81
2022/08/31 08:44:31;;;;;;;3.92;2.00;;;18.10;99.90;;;;;;5077685;28;20453;-81
2022/08/31 08:47:01;;;;;;;4.38;2.30;;;17.90;99.90;;;;;;5077809;28;20098;-81
2022/08/31 08:49:27;;;;;;;4.57;2.33;;;17.90;99.90;;;;;;5067296;28;20013;-81
2022/08/31 08:52:02;;;;;;;4.32;2.10;;;18.00;99.90;;;;;;5073825;28;20460;-81
2022/08/31 08:54:34;;;;;;;4.47;2.45;;;18.10;99.90;;;;;;5071508;28;20020;-81
2022/08/31 08:57:07;;;;;;;5.25;2.47;;;18.10;99.90;;;;;;5075868;28;20489;-81
2022/08/31 08:59:32;;;;;;;6.85;2.55;;;18.10;99.90;;;;;;5069669;28;20017;-81
2022/08/31 09:02:08;;;;;;;7.22;2.67;;;18.20;99.90;;;;;;5073385;28;20095;-81
2022/08/31 09:04:58;;;;;;;5.00;2.15;;;18.30;99.90;;;;;;5073359;28;20421;-81
2022/08/31 09:07:43;;;;;;;4.43;2.05;;;18.20;99.90;;;;;;5066277;28;20040;-81
2022/08/31 09:10:08;;;;;;;5.32;2.58;;;18.30;99.90;;;;;;5070239;28;20100;-81
2022/08/31 09:13:01;;;;;;;6.03;2.50;;;18.20;99.90;;;;;;5070217;28;20516;-81
2022/08/31 09:15:40;;;;;;;5.47;2.55;;;18.30;99.90;;;;;;5067915;28;20039;-82
2022/08/31 09:18:25;;;;;;;4.43;2.40;;;18.40;99.90;;;;;;5060086;28;20549;-82
2022/08/31 09:21:20;;;;;;;5.97;2.88;;;18.40;99.90;;;;;;5087799;22;20121;-86
2022/08/31 09:23:53;;;;;;;7.07;2.95;;;18.40;99.90;;;;;;5066732;28;20105;-86
2022/08/31 09:26:26;;;;;;;5.32;2.67;;;18.30;99.90;;;;;;5068541;28;20511;-86
2022/08/31 09:28:53;;;;;;;4.43;2.47;;;18.20;99.90;;;;;;5068724;28;20067;-87
2022/08/31 09:31:40;;;;;;;5.82;2.60;;;18.20;99.90;;;;;;5063806;28;20021;-86
2022/08/31 09:34:28;;;;;;;5.65;2.88;;;18.20;99.90;;;;;;5070539;28;20017;-86
2022/08/31 09:37:18;;;;;;;5.72;3.00;;;18.00;99.90;;;;;;5057565;28;20028;-87
2022/08/31 09:39:46;;;;;;;5.68;2.80;;;17.90;99.90;;;;;;5069033;28;20021;-86
2022/08/31 09:42:29;;;;;;;5.55;2.63;;;18.10;99.90;;;;;;5062633;28;20029;-86
2022/08/31 09:44:59;;;;;;;6.43;3.08;;;18.20;99.90;;;;;;5064012;28;20032;-86
2022/08/31 09:47:47;;;;;;;6.00;2.97;;;18.20;99.90;;;;;;5066270;28;20029;-87
2022/08/31 09:50:34;;;;;;;5.78;2.65;;;18.30;99.90;;;;;;5069210;28;20024;-86
2022/08/31 09:56:23;;;;;;;5.70;3.42;;;18.60;99.90;;;;;;5069432;28;20043;-86
2022/08/31 09:59:01;;;;;;;6.60;3.35;;;18.60;99.90;;;;;;5051864;28;20041;-86
2022/08/31 10:01:41;;;;;;;5.15;2.80;;;18.70;99.90;;;;;;5061107;28;20520;-86
2022/08/31 10:04:15;;;;;;;6.53;2.70;;;18.70;99.90;;;;;;5076310;28;20048;-86
2022/08/31 10:07:06;;;;;;;5.97;2.78;;;18.70;99.90;;;;;;5066643;28;20439;-87
2022/08/31 10:09:47;;;;;;;5.88;2.90;;;18.60;99.90;;;;;;5067013;28;20016;-86
2022/08/31 10:12:33;;;;;;;6.65;3.25;;;18.50;99.90;;;;;;5063853;28;20025;-87
2022/08/31 10:15:08;;;;;;;5.28;3.13;;;18.50;99.90;;;;;;5059997;28;20028;-87
2022/08/31 10:17:53;;;;;;;6.25;3.17;;;18.60;99.90;;;;;;5058300;28;20028;-86
2022/08/31 10:20:25;;;;;;;6.20;2.97;;;18.60;99.90;;;;;;5063855;28;20021;-86
2022/08/31 10:22:56;;;;;;;6.38;3.00;;;18.70;99.90;;;;;;5066440;28;20160;-86
2022/08/31 10:25:37;;;;;;;6.22;3.33;;;18.70;99.90;;;;;;5068954;28;20051;-86
2022/08/31 10:28:15;;;;;;;5.18;3.20;;;18.60;99.90;;;;;;5061830;28;20025;-86
2022/08/31 10:31:01;;;;;;;7.00;3.22;;;18.70;99.90;;;;;;5067475;28;20018;-86
2022/08/31 10:36:32;;;;;;;5.45;2.95;;;18.90;99.90;;;;;;5069384;28;20024;-87
2022/08/31 10:38:58;;;;;;;7.38;3.33;;;19.10;99.90;;;;;;5066427;28;20023;-86
2022/08/31 10:41:34;;;;;;;6.18;2.85;;;19.30;99.90;;;;;;5068336;28;20025;-86
2022/08/31 10:44:22;;;;;;;5.18;2.90;;;19.40;99.90;;;;;;5069581;28;20088;-86
2022/08/31 10:46:50;;;;;;;6.07;2.50;;;19.50;99.90;;;;;;5073665;28;20536;-86
2022/08/31 10:49:19;;;;;;;6.63;2.80;;;19.60;99.90;;;;;;5072923;28;20090;-86
2022/08/31 10:51:51;;;;;;;5.82;2.50;;;19.70;99.90;;;;;;5073552;28;20028;-86
2022/08/31 10:54:27;;;;;;;4.75;2.50;;;19.70;99.90;;;;;;5066781;28;20028;-86
2022/08/31 10:57:07;;;;;;;6.18;2.33;;;19.80;99.90;;;;;;5070845;28;20066;-87
2022/08/31 10:59:46;;;;;;;3.90;2.05;;;19.90;99.90;;;;;;5069332;28;20055;-87
2022/08/31 11:02:38;;;;;;;5.60;2.72;;;19.90;99.90;;;;;;5065200;28;20033;-87
2022/08/31 11:05:31;;;;;;;;;;;20.00;99.90;;;;;;5066489;28;20092;-86
2022/08/31 11:08:15;;;;;;;5.25;2.28;;;20.00;99.90;;;;;;5065760;28;19999;-86
2022/08/31 11:10:43;;;;;;;5.47;2.60;;;20.00;99.90;;;;;;5070802;28;20021;-86
2022/08/31 11:13:24;;;;;;;4.63;2.35;;;19.80;99.90;;;;;;5072851;28;20093;-86
2022/08/31 11:16:09;;;;;;;5.88;2.60;;;19.80;99.90;;;;;;5081580;28;20029;-86
2022/08/31 11:18:43;;;;;;;5.47;2.83;;;19.70;99.90;;;;;;5069455;28;20055;-86
2022/08/31 11:21:21;;;;;;;5.35;2.38;;;19.70;99.90;;;;;;5071839;28;20056;-86
2022/08/31 11:24:05;;;;;;;5.47;2.30;;;19.70;99.90;;;;;;5072297;28;20481;-87
2022/08/31 11:26:40;;;;;;;5.20;2.60;;;19.70;99.90;;;;;;5070488;28;20024;-86
2022/08/31 11:29:34;;;;;;;5.97;2.70;;;19.50;99.90;;;;;;5068295;28;20042;-86
2022/08/31 11:32:09;;;;;;;4.78;2.65;;;19.40;99.90;;;;;;5071098;28;20100;-87
2022/08/31 11:34:46;;;;;;;6.63;2.95;;;19.40;99.90;;;;;;5069469;28;20066;-86
2022/08/31 11:37:32;;;;;;;6.43;3.15;;;19.20;99.90;;;;;;5065343;28;20028;-88
2022/08/31 11:39:58;;;;;;;6.63;2.70;;;19.10;99.90;;;;;;5070427;28;20103;-86
2022/08/31 11:42:26;;;;;;;5.18;2.47;;;19.00;99.90;;;;;;5061870;28;20067;-87
2022/08/31 11:45:07;;;;;;;4.07;2.22;;;19.00;99.90;;;;;;5067280;28;20504;-87
2022/08/31 11:47:36;;;;;;;7.18;2.85;;;18.80;99.90;;;;;;5067077;28;20032;-86
2022/08/31 11:50:09;;;;;;;5.80;3.10;;;19.00;99.90;;;;;;5061574;28;20658;-86
2022/08/31 11:52:39;;;;;;;4.75;2.50;;;18.90;99.90;;;;;;5070179;28;20025;-86
2022/08/31 11:55:27;;;;;;;5.07;2.53;;;18.90;99.90;;;;;;5065377;28;20508;-86
2022/08/31 11:58:05;;;;;;;8.27;2.60;;;18.90;99.90;;;;;;5067455;28;20029;-86
2022/08/31 12:00:44;;;;;;;6.00;2.55;;;18.90;99.90;;;;;;5070592;28;20106;-85
2022/08/31 12:03:29;;;;;;;5.15;2.40;;;18.90;99.90;;;;;;5070447;28;20074;-86
2022/08/31 12:05:56;;;;;;;4.25;2.25;;;18.90;99.90;;;;;;5067259;28;20017;-85
2022/08/31 12:08:51;;;;;;;5.43;3.05;;;19.00;99.90;;;;;;5070815;28;20028;-86
2022/08/31 12:11:35;;;;;;;6.35;3.03;;;19.00;99.90;;;;;;5092415;28;20123;-85
2022/08/31 12:14:33;;;;;;;5.60;2.47;;;19.10;99.90;;;;;;5080672;28;20031;-86
2022/08/31 12:17:29;;;;;;;5.13;2.42;;;19.10;99.90;;;;;;5067153;28;20131;-85
2022/08/31 12:20:07;;;;;;;6.18;2.92;;;19.10;99.90;;;;;;5032135;28;20098;-85
2022/08/31 12:25:44;;;;;;;5.47;2.83;;;19.10;99.90;;;;;;5068573;28;20032;-85
2022/08/31 12:28:48;;;;;;;5.20;2.30;;;19.10;99.90;;;;;;5066165;28;20020;-85
2022/08/31 12:31:16;;;;;;;4.85;2.83;;;19.10;99.90;;;;;;5052626;28;20025;-85
2022/08/31 12:34:06;;;;;;;4.85;2.60;;;19.30;99.90;;;;;;5068091;28;20599;-85
2022/08/31 12:36:35;;;;;;;4.07;2.03;;;19.30;99.90;;;;;;5093034;28;20040;-86
2022/08/31 12:39:18;;;;;;;5.80;2.42;;;19.40;99.90;;;;;;5063497;28;20067;-85
2022/08/31 12:41:55;;;;;;;5.40;2.33;;;19.50;99.90;;;;;;5060213;28;20044;-85
2022/08/31 12:44:35;;;;;;;7.10;2.80;;;19.60;99.90;;;;;;5068393;28;20020;-85
2022/08/31 12:47:28;;;;;;;5.30;2.75;;;19.60;99.90;;;;;;5069308;28;20024;-86
2022/08/31 12:50:13;;;;;;;4.68;2.40;;;19.70;99.90;;;;;;5052590;28;20071;-85
2022/08/31 12:53:09;;;;;;;5.55;2.20;;;19.70;99.90;;;;;;5070240;28;20024;-85
2022/08/31 12:56:00;;;;;;;5.75;2.28;;;19.70;99.90;;;;;;5066894;28;20050;-85
2022/08/31 12:58:50;;;;;;;8.63;2.95;;;19.90;99.90;;;;;;5062427;28;20115;-85
2022/08/31 13:01:21;;;;;;;4.85;2.83;;;20.00;99.90;;;;;;5058043;28;20104;-87
2022/08/31 13:03:52;;;;;;;4.28;2.13;;;20.40;99.90;;;;;;5062352;28;20077;-86
2022/08/31 13:06:27;;;;;;;7.00;2.70;;;20.60;99.90;;;;;;5067865;28;20023;-86
2022/08/31 13:08:53;;;;;;;4.30;2.25;;;20.70;99.90;;;;;;5067889;28;20417;-85
2022/08/31 13:11:38;;;;;;;4.82;2.65;;;20.80;99.90;;;;;;5071698;28;20016;-85
2022/08/31 13:14:09;;;;;;;5.97;2.53;;;20.80;99.90;;;;;;5067940;28;20048;-86
2022/08/31 13:16:43;;;;;;;;;;;20.90;99.90;;;;;;5070889;28;20057;-85
2022/08/31 13:19:28;;;;;;;4.50;2.63;;;20.80;99.90;;;;;;5070037;28;19916;-86
2022/08/31 13:22:15;;;;;;;6.85;2.70;;;20.80;99.90;;;;;;5065374;28;20698;-86
2022/08/31 13:24:44;;;;;;;5.32;2.75;;;20.80;99.90;;;;;;5089629;28;20052;-86